Flight Track Log - Related Links

Times and Time Zones

All times are in EDT time to prevent confusion due to time zone crossing. See the SWA3853 flight status page for this flight to view local times or setup timezone preferences in your user account.

Time Position Orientation Groundspeed Altitude Reporting Facility
EDT Latitude Longitude Course Direction KTS MPH feet Rate Location/Type
Wed 02:47:40 PM 39.3500 -94.7333 339° North 181 208 2,900  Level Kansas City TRACON
Wed 02:48:43 PM 39.3403 -94.8017 260° West 222 255 7,100 3,840 Climbing Kansas City Center
Wed 02:49:45 PM 39.2872 -94.8158 192° South 205 236 10,900 2,784 Climbing Kansas City Center
Wed 02:50:48 PM 39.2014 -94.8342 189° South 297 342 12,900 2,592 Climbing Kansas City Center
Wed 02:51:50 PM 39.1144 -94.8522 189° South 324 373 16,300 3,290 Climbing Kansas City Center
Wed 02:52:52 PM 39.0039 -94.8753 189° South 355 409 19,700 3,048 Climbing Kansas City Center
Wed 02:53:54 PM 38.9050 -94.8964 189° South 372 428 22,600 2,468 Climbing Kansas City Center
Wed 02:54:56 PM 38.8014 -94.9167 189° South 389 448 24,800 2,274 Climbing Kansas City Center
Wed 02:55:58 PM 38.6731 -94.9519 192° South 419 482 27,300 2,226 Climbing Kansas City Center
Wed 02:57:00 PM 38.5614 -94.9911 195° South 432 497 29,400 2,323 Climbing Kansas City Center
Wed 02:58:02 PM 38.4289 -95.0375 195° South 438 504 32,100 2,323 Climbing Kansas City Center
Wed 02:59:04 PM 38.3181 -95.0756 195° South 431 496 34,200 1,403 Climbing Kansas City Center
Wed 03:00:06 PM 38.1889 -95.1206 195° South 430 495 35,000 484 Climbing Kansas City Center
Wed 03:01:08 PM 38.0778 -95.1600 196° South 434 499 35,200 484 Climbing Kansas City Center
Wed 03:02:10 PM 37.9481 -95.2022 194° South 429 494 36,000 387 Climbing Kansas City Center
Wed 03:03:12 PM 37.8356 -95.2378 194° South 429 494 36,000  Level Kansas City Center
Wed 03:04:14 PM 37.7200 -95.2772 195° South 429 494 36,000  Level Kansas City Center
Wed 03:05:16 PM 37.6061 -95.3186 196° South 427 491 36,000  Level Kansas City Center
Wed 03:06:18 PM 37.4906 -95.3558 194° South 427 491 36,000  Level Kansas City Center
Wed 03:07:20 PM 37.3503 -95.3883 190° South 427 491 36,000  Level Kansas City Center
Wed 03:08:22 PM 37.2294 -95.3911 181° South 431 496 36,000  Level Kansas City Center
Wed 03:09:24 PM 37.1094 -95.3978 183° South 431 496 36,000  Level Kansas City Center
Wed 03:10:26 PM 36.9881 -95.4056 183° South 434 499 36,000  Level Kansas City Center
Wed 03:11:28 PM 36.8664 -95.4119 182° South 436 502 36,000  Level Kansas City Center
Wed 03:12:30 PM 36.7456 -95.4192 183° South 434 499 36,000  Level Kansas City Center
Wed 03:13:33 PM 36.6000 -95.4281 183° South 435 501 36,000  Level Kansas City Center
Wed 03:14:35 PM 36.4947 -95.4339 183° South 434 499 36,000  Level Kansas City Center
Wed 03:15:37 PM 36.3722 -95.4411 183° South 436 502 36,000  Level Kansas City Center
Wed 03:16:39 PM 36.2219 -95.4494 183° South 444 511 36,000  Level Kansas City Center
Wed 03:17:41 PM 36.0992 -95.4550 182° South 442 509 36,000  Level Kansas City Center
Wed 03:18:43 PM 35.9703 -95.4517 179° South 448 516 36,000  Level Kansas City Center
Wed 03:19:45 PM 35.8472 -95.4350 174° South 444 511 36,000  Level Kansas City Center
Wed 03:20:47 PM 35.7231 -95.4175 173° South 446 513 36,000  Level Kansas City Center
Wed 03:21:30 PM 35.6217 -95.4067 175° South 447 514 36,000 -175 Level Fort Worth Center
Wed 03:22:30 PM 35.4964 -95.3892 174° South 447 514 35,700 -500 Descending Fort Worth Center
Wed 03:23:30 PM 35.3708 -95.3719 174° South 447 514 35,000 -350 Descending Fort Worth Center
Wed 03:24:30 PM 35.2456 -95.3572 175° South 452 520 35,000  Level Fort Worth Center
Wed 03:25:30 PM 35.1222 -95.3372 172° South 452 520 35,000  Level Fort Worth Center
Wed 03:26:30 PM 34.9989 -95.3200 173° South 452 520 35,000  Level Fort Worth Center
Wed 03:27:30 PM 34.8714 -95.3053 175° South 452 520 35,000  Level Fort Worth Center
Wed 03:28:30 PM 34.7500 -95.2908 174° South 452 520 35,000 -400 Level Fort Worth Center
Wed 03:29:30 PM 34.6317 -95.3289 195° South 428 493 34,200 -850 Descending Fort Worth Center
Wed 03:30:30 PM 34.5369 -95.3994 212° Southwest 428 493 33,300 -900 Descending Fort Worth Center
Wed 03:31:30 PM 34.4339 -95.4772 212° Southwest 434 499 32,400 -950 Descending Fort Worth Center
Wed 03:32:30 PM 34.3306 -95.5525 211° Southwest 439 505 31,400 -1,000 Descending Fort Worth Center
Wed 03:33:30 PM 34.2131 -95.6378 211° Southwest 439 505 30,400 -1,450 Descending Fort Worth Center
Wed 03:34:30 PM 34.1097 -95.7178 213° Southwest 445 512 28,500 2,300 Descending Fort Worth Center
Wed 03:35:30 PM 34.0189 -95.7822 210° Southwest 440 506 35,000 -3,900 Climbing Fort Worth Center
Wed 03:36:30 PM 33.9114 -95.8617 212° Southwest 445 512 20,700 -8,900 Descending Fort Worth Center
Wed 03:37:30 PM 33.8058 -95.9386 211° Southwest 448 516 17,200 -3,400 Descending Fort Worth Center
Wed 03:38:30 PM 33.6919 -96.0231 212° Southwest 442 509 13,900 -2,900 Descending Fort Worth Center
Wed 03:39:30 PM 33.6050 -96.0867 211° Southwest 424 488 11,400 -1,950 Descending Fort Worth Center
Wed 03:40:30 PM 33.5033 -96.1606 211° Southwest 400 460 10,000 -700 Descending Fort Worth Center
Wed 03:41:30 PM 33.4267 -96.2164 211° Southwest 379 436 10,000  Level Fort Worth Center
Wed 03:42:30 PM 33.3356 -96.2847 212° Southwest 363 418 10,000 -350 Level Fort Worth Center
Wed 03:43:30 PM 33.2672 -96.3353 212° Southwest 335 386 9,300 -750 Descending Fort Worth Center
Wed 03:44:30 PM 33.2094 -96.4178 230° Southwest 306 352 8,500 -850 Descending Fort Worth Center
Wed 03:45:30 PM 33.1681 -96.4878 235° Southwest 299 344 7,600 -1,000 Descending Fort Worth Center
Wed 03:46:30 PM 33.1167 -96.5728 234° Southwest 293 337 6,500 -1,250 Descending Fort Worth Center
Wed 03:47:30 PM 33.0711 -96.6450 233° Southwest 286 329 5,100 -1,350 Descending Fort Worth Center
Wed 03:48:30 PM 33.0297 -96.7122 234° Southwest 286 329 3,800 -955 Descending Fort Worth Center
Wed 03:49:42 PM 32.9667 -96.8000 229° Southwest 265 305 3,000 -292 Descending Dallas / Fort Worth TRACON
Wed 03:50:54 PM 32.9333 -96.8667 239° Southwest 170 196 3,100 -619 Climbing Dallas / Fort Worth TRACON
Wed 03:51:48 PM 32.9000 -96.9000 220° Southwest 147 169 1,700 -1,158 Descending Dallas / Fort Worth TRACON
Wed 03:52:48 PM 32.8667 -96.8667 140° Southeast 136 157 900 12,333 Descending Dallas / Fort Worth TRACON
Wed 03:54:30 PM 32.8197 -96.8719 185° South 114 131 35,000 12,630 Climbing Fort Worth Center
Wed 03:55:30 PM 32.7883 -96.8672 173° South 114 131 35,000  Level Fort Worth Center

Login

Don't have an account? Register now (free) for customized features, flight alerts, and more!